sensor_id;sensor_type;location;lat;lon;timestamp;temperature;humidity
14397;DHT22;50653;47.810;13.022;2023-04-01T00:01:32;9.10;99.90
14397;DHT22;50653;47.810;13.022;2023-04-01T00:03:58;9.10;99.90
14397;DHT22;50653;47.810;13.022;2023-04-01T00:06:24;9.10;99.90
14397;DHT22;50653;47.810;13.022;2023-04-01T00:08:50;9.20;99.90
14397;DHT22;50653;47.810;13.022;2023-04-01T00:11:16;9.10;99.90
14397;DHT22;50653;47.810;13.022;2023-04-01T00:13:42;9.10;99.90
14397;DHT22;50653;47.810;13.022;2023-04-01T00:16:08;9.10;99.90
14397;DHT22;50653;47.810;13.022;2023-04-01T00:18:34;9.10;99.90
14397;DHT22;50653;47.810;13.022;2023-04-01T00:21:00;9.10;99.90
14397;DHT22;50653;47.810;13.022;2023-04-01T00:23:26;9.00;99.90
14397;DHT22;50653;47.810;13.022;2023-04-01T00:25:52;9.10;99.90
14397;DHT22;50653;47.810;13.022;2023-04-01T00:28:19;9.00;99.90
14397;DHT22;50653;47.810;13.022;2023-04-01T00:30:45;9.00;99.90
14397;DHT22;50653;47.810;13.022;2023-04-01T00:33:11;9.10;99.90
14397;DHT22;50653;47.810;13.022;2023-04-01T00:35:37;9.00;99.90
14397;DHT22;50653;47.810;13.022;2023-04-01T00:38:03;9.10;99.90
14397;DHT22;50653;47.810;13.022;2023-04-01T00:40:38;9.10;99.90
14397;DHT22;50653;47.810;13.022;2023-04-01T00:43:11;9.10;99.90
14397;DHT22;50653;47.810;13.022;2023-04-01T00:45:40;9.10;99.90
14397;DHT22;50653;47.810;13.022;2023-04-01T00:48:22;9.10;99.90
14397;DHT22;50653;47.810;13.022;2023-04-01T00:50:52;9.10;99.90
14397;DHT22;50653;47.810;13.022;2023-04-01T00:53:19;9.00;99.90
14397;DHT22;50653;47.810;13.022;2023-04-01T00:56:13;8.90;99.90
14397;DHT22;50653;47.810;13.022;2023-04-01T00:58:50;9.00;99.90
14397;DHT22;50653;47.810;13.022;2023-04-01T01:01:17;9.00;99.90
14397;DHT22;50653;47.810;13.022;2023-04-01T01:03:44;9.00;99.90
14397;DHT22;50653;47.810;13.022;2023-04-01T01:08:55;9.00;99.90
14397;DHT22;50653;47.810;13.022;2023-04-01T01:11:34;9.00;99.90
14397;DHT22;50653;47.810;13.022;2023-04-01T01:14:25;9.00;99.90
14397;DHT22;50653;47.810;13.022;2023-04-01T01:16:59;9.00;99.90
14397;DHT22;50653;47.810;13.022;2023-04-01T01:19:51;9.10;99.90
14397;DHT22;50653;47.810;13.022;2023-04-01T01:27:31;9.20;99.90
14397;DHT22;50653;47.810;13.022;2023-04-01T01:30:19;9.20;99.90
14397;DHT22;50653;47.810;13.022;2023-04-01T01:35:33;9.10;99.90
14397;DHT22;50653;47.810;13.022;2023-04-01T01:38:08;9.10;99.90
14397;DHT22;50653;47.810;13.022;2023-04-01T01:40:35;9.00;99.90
14397;DHT22;50653;47.810;13.022;2023-04-01T01:43:05;9.10;99.90
14397;DHT22;50653;47.810;13.022;2023-04-01T01:45:35;9.00;99.90
14397;DHT22;50653;47.810;13.022;2023-04-01T01:48:03;9.00;99.90
14397;DHT22;50653;47.810;13.022;2023-04-01T01:50:29;9.00;99.90
14397;DHT22;50653;47.810;13.022;2023-04-01T01:53:07;9.00;99.90
14397;DHT22;50653;47.810;13.022;2023-04-01T01:55:36;9.00;99.90
14397;DHT22;50653;47.810;13.022;2023-04-01T01:58:17;9.00;99.90
14397;DHT22;50653;47.810;13.022;2023-04-01T02:00:58;8.90;99.90
14397;DHT22;50653;47.810;13.022;2023-04-01T02:03:27;8.90;99.90
14397;DHT22;50653;47.810;13.022;2023-04-01T02:05:56;8.90;99.90
14397;DHT22;50653;47.810;13.022;2023-04-01T02:08:28;8.90;99.90
14397;DHT22;50653;47.810;13.022;2023-04-01T02:11:03;8.90;99.90
14397;DHT22;50653;47.810;13.022;2023-04-01T02:16:13;8.90;99.90
14397;DHT22;50653;47.810;13.022;2023-04-01T02:18:41;8.90;99.90
14397;DHT22;50653;47.810;13.022;2023-04-01T02:21:08;8.90;99.90
14397;DHT22;50653;47.810;13.022;2023-04-01T02:23:35;8.90;99.90
14397;DHT22;50653;47.810;13.022;2023-04-01T02:26:05;8.90;99.90
14397;DHT22;50653;47.810;13.022;2023-04-01T02:28:32;8.80;99.90
14397;DHT22;50653;47.810;13.022;2023-04-01T02:31:00;8.90;99.90
14397;DHT22;50653;47.810;13.022;2023-04-01T02:33:28;8.90;99.90
14397;DHT22;50653;47.810;13.022;2023-04-01T02:35:55;8.90;99.90
14397;DHT22;50653;47.810;13.022;2023-04-01T02:38:21;8.90;99.90
14397;DHT22;50653;47.810;13.022;2023-04-01T02:40:51;8.90;99.90
14397;DHT22;50653;47.810;13.022;2023-04-01T02:43:21;8.80;99.90
14397;DHT22;50653;47.810;13.022;2023-04-01T02:45:47;8.80;99.90
14397;DHT22;50653;47.810;13.022;2023-04-01T02:48:12;8.80;99.90
14397;DHT22;50653;47.810;13.022;2023-04-01T02:50:39;8.80;99.90
14397;DHT22;50653;47.810;13.022;2023-04-01T02:53:05;8.80;99.90
14397;DHT22;50653;47.810;13.022;2023-04-01T02:55:32;8.80;99.90
14397;DHT22;50653;47.810;13.022;2023-04-01T02:57:58;8.80;99.90
14397;DHT22;50653;47.810;13.022;2023-04-01T03:00:25;8.80;99.90
14397;DHT22;50653;47.810;13.022;2023-04-01T03:02:50;8.80;99.90
14397;DHT22;50653;47.810;13.022;2023-04-01T03:05:16;8.70;99.90
14397;DHT22;50653;47.810;13.022;2023-04-01T03:07:43;8.80;99.90
14397;DHT22;50653;47.810;13.022;2023-04-01T03:10:09;8.80;99.90
14397;DHT22;50653;47.810;13.022;2023-04-01T03:12:35;8.90;99.90
14397;DHT22;50653;47.810;13.022;2023-04-01T03:15:01;8.90;99.90
14397;DHT22;50653;47.810;13.022;2023-04-01T03:17:27;8.90;99.90
14397;DHT22;50653;47.810;13.022;2023-04-01T03:19:53;8.90;99.90
14397;DHT22;50653;47.810;13.022;2023-04-01T03:22:18;8.90;99.90
14397;DHT22;50653;47.810;13.022;2023-04-01T03:24:47;8.90;99.90
14397;DHT22;50653;47.810;13.022;2023-04-01T03:27:13;8.80;99.90
14397;DHT22;50653;47.810;13.022;2023-04-01T03:29:39;8.80;99.90
14397;DHT22;50653;47.810;13.022;2023-04-01T03:32:05;8.80;99.90
14397;DHT22;50653;47.810;13.022;2023-04-01T03:34:30;8.80;99.90
14397;DHT22;50653;47.810;13.022;2023-04-01T03:36:57;8.80;99.90
14397;DHT22;50653;47.810;13.022;2023-04-01T03:39:23;8.80;99.90
14397;DHT22;50653;47.810;13.022;2023-04-01T03:41:49;8.80;99.90
14397;DHT22;50653;47.810;13.022;2023-04-01T03:44:15;8.90;99.90
14397;DHT22;50653;47.810;13.022;2023-04-01T03:46:41;8.80;99.90
14397;DHT22;50653;47.810;13.022;2023-04-01T03:49:10;8.60;99.90
14397;DHT22;50653;47.810;13.022;2023-04-01T03:51:38;8.60;99.90
14397;DHT22;50653;47.810;13.022;2023-04-01T03:54:04;8.50;99.90
14397;DHT22;50653;47.810;13.022;2023-04-01T03:56:31;8.50;99.90
14397;DHT22;50653;47.810;13.022;2023-04-01T03:58:57;8.50;99.90
14397;DHT22;50653;47.810;13.022;2023-04-01T04:01:23;8.50;99.90
14397;DHT22;50653;47.810;13.022;2023-04-01T04:03:52;8.50;99.90
14397;DHT22;50653;47.810;13.022;2023-04-01T04:06:18;8.60;99.90
14397;DHT22;50653;47.810;13.022;2023-04-01T04:08:45;8.50;99.90
14397;DHT22;50653;47.810;13.022;2023-04-01T04:11:11;8.40;99.90
14397;DHT22;50653;47.810;13.022;2023-04-01T04:13:41;8.50;99.90
14397;DHT22;50653;47.810;13.022;2023-04-01T04:16:07;8.50;99.90
14397;DHT22;50653;47.810;13.022;2023-04-01T04:18:34;8.60;99.90
14397;DHT22;50653;47.810;13.022;2023-04-01T04:21:00;8.60;99.90
14397;DHT22;50653;47.810;13.022;2023-04-01T04:23:25;8.60;99.90
14397;DHT22;50653;47.810;13.022;2023-04-01T04:25:57;8.60;99.90
14397;DHT22;50653;47.810;13.022;2023-04-01T04:28:24;8.60;99.90
14397;DHT22;50653;47.810;13.022;2023-04-01T04:30:51;8.60;99.90
14397;DHT22;50653;47.810;13.022;2023-04-01T04:33:16;8.60;99.90
14397;DHT22;50653;47.810;13.022;2023-04-01T04:35:42;8.60;99.90
14397;DHT22;50653;47.810;13.022;2023-04-01T04:38:09;8.70;99.90
14397;DHT22;50653;47.810;13.022;2023-04-01T04:40:36;8.60;99.90
14397;DHT22;50653;47.810;13.022;2023-04-01T04:43:03;8.50;99.90
14397;DHT22;50653;47.810;13.022;2023-04-01T04:45:29;8.50;99.90
14397;DHT22;50653;47.810;13.022;2023-04-01T04:47:56;8.40;99.90
14397;DHT22;50653;47.810;13.022;2023-04-01T04:50:22;8.40;99.90
14397;DHT22;50653;47.810;13.022;2023-04-01T04:52:48;8.40;99.90
14397;DHT22;50653;47.810;13.022;2023-04-01T04:55:14;8.40;99.90
14397;DHT22;50653;47.810;13.022;2023-04-01T04:57:42;8.50;99.90
14397;DHT22;50653;47.810;13.022;2023-04-01T05:00:08;8.40;99.90
14397;DHT22;50653;47.810;13.022;2023-04-01T05:02:54;8.40;99.90
14397;DHT22;50653;47.810;13.022;2023-04-01T05:05:20;8.40;99.90
14397;DHT22;50653;47.810;13.022;2023-04-01T05:07:46;8.40;99.90
14397;DHT22;50653;47.810;13.022;2023-04-01T05:10:11;8.40;99.90
14397;DHT22;50653;47.810;13.022;2023-04-01T05:12:39;8.30;99.90
14397;DHT22;50653;47.810;13.022;2023-04-01T05:15:07;8.40;99.90
14397;DHT22;50653;47.810;13.022;2023-04-01T05:17:33;8.40;99.90
14397;DHT22;50653;47.810;13.022;2023-04-01T05:19:59;8.40;99.90
14397;DHT22;50653;47.810;13.022;2023-04-01T05:22:26;8.30;99.90
14397;DHT22;50653;47.810;13.022;2023-04-01T05:24:52;8.30;99.90
14397;DHT22;50653;47.810;13.022;2023-04-01T05:27:18;8.50;99.90
14397;DHT22;50653;47.810;13.022;2023-04-01T05:29:44;8.40;99.90
14397;DHT22;50653;47.810;13.022;2023-04-01T05:32:26;8.40;99.90
14397;DHT22;50653;47.810;13.022;2023-04-01T05:34:53;8.50;99.90
14397;DHT22;50653;47.810;13.022;2023-04-01T05:37:19;8.40;99.90
14397;DHT22;50653;47.810;13.022;2023-04-01T05:39:45;8.50;99.90
14397;DHT22;50653;47.810;13.022;2023-04-01T05:42:11;8.60;99.90
14397;DHT22;50653;47.810;13.022;2023-04-01T05:44:39;8.50;99.90
14397;DHT22;50653;47.810;13.022;2023-04-01T05:47:07;8.50;99.90
14397;DHT22;50653;47.810;13.022;2023-04-01T05:49:33;8.50;99.90
14397;DHT22;50653;47.810;13.022;2023-04-01T05:52:00;8.50;99.90
14397;DHT22;50653;47.810;13.022;2023-04-01T05:54:27;8.50;99.90
14397;DHT22;50653;47.810;13.022;2023-04-01T05:56:52;8.40;99.90
14397;DHT22;50653;47.810;13.022;2023-04-01T05:59:19;8.50;99.90
14397;DHT22;50653;47.810;13.022;2023-04-01T06:01:45;8.50;99.90
14397;DHT22;50653;47.810;13.022;2023-04-01T06:04:16;8.50;99.90
14397;DHT22;50653;47.810;13.022;2023-04-01T06:06:42;8.60;99.90
14397;DHT22;50653;47.810;13.022;2023-04-01T06:09:16;8.50;99.90
14397;DHT22;50653;47.810;13.022;2023-04-01T06:11:54;8.60;99.90
14397;DHT22;50653;47.810;13.022;2023-04-01T06:14:43;8.60;99.90
14397;DHT22;50653;47.810;13.022;2023-04-01T06:37:57;8.70;99.90
14397;DHT22;50653;47.810;13.022;2023-04-01T06:40:57;8.80;99.90
14397;DHT22;50653;47.810;13.022;2023-04-01T06:49:49;8.80;99.90
14397;DHT22;50653;47.810;13.022;2023-04-01T06:55:41;8.80;99.90
14397;DHT22;50653;47.810;13.022;2023-04-01T07:01:45;9.00;99.90
14397;DHT22;50653;47.810;13.022;2023-04-01T07:04:31;9.10;99.90
14397;DHT22;50653;47.810;13.022;2023-04-01T07:07:14;9.10;99.90
14397;DHT22;50653;47.810;13.022;2023-04-01T07:09:54;9.10;99.90
14397;DHT22;50653;47.810;13.022;2023-04-01T07:15:39;9.10;99.90
14397;DHT22;50653;47.810;13.022;2023-04-01T07:18:32;9.20;99.90
14397;DHT22;50653;47.810;13.022;2023-04-01T07:21:01;9.30;99.90
14397;DHT22;50653;47.810;13.022;2023-04-01T07:23:38;9.20;99.90
14397;DHT22;50653;47.810;13.022;2023-04-01T07:26:24;9.20;99.90
14397;DHT22;50653;47.810;13.022;2023-04-01T07:29:11;9.30;99.90
14397;DHT22;50653;47.810;13.022;2023-04-01T07:34:51;9.40;99.90
14397;DHT22;50653;47.810;13.022;2023-04-01T07:46:44;9.50;99.90
14397;DHT22;50653;47.810;13.022;2023-04-01T07:55:14;9.60;99.90
14397;DHT22;50653;47.810;13.022;2023-04-01T08:07:01;9.70;99.90
14397;DHT22;50653;47.810;13.022;2023-04-01T08:15:45;9.80;99.90
14397;DHT22;50653;47.810;13.022;2023-04-01T08:18:31;9.70;99.90
14397;DHT22;50653;47.810;13.022;2023-04-01T08:21:01;9.80;99.90
14397;DHT22;50653;47.810;13.022;2023-04-01T08:23:36;9.80;99.90
14397;DHT22;50653;47.810;13.022;2023-04-01T08:32:03;10.00;99.90
14397;DHT22;50653;47.810;13.022;2023-04-01T08:34:36;10.00;99.90
14397;DHT22;50653;47.810;13.022;2023-04-01T08:37:14;10.00;99.90
14397;DHT22;50653;47.810;13.022;2023-04-01T08:53:57;10.20;99.90
14397;DHT22;50653;47.810;13.022;2023-04-01T09:03:10;10.20;99.90
14397;DHT22;50653;47.810;13.022;2023-04-01T09:11:21;10.30;99.90
14397;DHT22;50653;47.810;13.022;2023-04-01T09:14:16;10.30;99.90
14397;DHT22;50653;47.810;13.022;2023-04-01T09:17:26;10.30;99.90
14397;DHT22;50653;47.810;13.022;2023-04-01T09:22:37;10.50;99.90
14397;DHT22;50653;47.810;13.022;2023-04-01T09:25:24;10.60;99.90
14397;DHT22;50653;47.810;13.022;2023-04-01T09:27:57;10.60;99.90
14397;DHT22;50653;47.810;13.022;2023-04-01T09:36:45;10.80;99.90
14397;DHT22;50653;47.810;13.022;2023-04-01T09:39:34;10.90;99.90
14397;DHT22;50653;47.810;13.022;2023-04-01T09:48:04;11.00;99.90
14397;DHT22;50653;47.810;13.022;2023-04-01T09:53:31;11.00;99.90
14397;DHT22;50653;47.810;13.022;2023-04-01T09:59:08;11.10;99.90
14397;DHT22;50653;47.810;13.022;2023-04-01T10:13:49;11.40;99.90
14397;DHT22;50653;47.810;13.022;2023-04-01T10:25:34;11.70;99.90
14397;DHT22;50653;47.810;13.022;2023-04-01T10:48:18;11.70;99.90
14397;DHT22;50653;47.810;13.022;2023-04-01T10:59:57;11.70;99.90
14397;DHT22;50653;47.810;13.022;2023-04-01T11:06:54;11.70;99.90
14397;DHT22;50653;47.810;13.022;2023-04-01T11:12:53;11.80;99.90
14397;DHT22;50653;47.810;13.022;2023-04-01T11:32:43;12.30;99.90
14397;DHT22;50653;47.810;13.022;2023-04-01T11:41:41;12.40;99.90
14397;DHT22;50653;47.810;13.022;2023-04-01T11:44:58;12.20;99.90
14397;DHT22;50653;47.810;13.022;2023-04-01T11:47:48;12.10;99.90
14397;DHT22;50653;47.810;13.022;2023-04-01T11:55:58;12.40;99.90
14397;DHT22;50653;47.810;13.022;2023-04-01T11:58:42;12.40;99.90
14397;DHT22;50653;47.810;13.022;2023-04-01T12:01:42;12.30;99.90
14397;DHT22;50653;47.810;13.022;2023-04-01T12:12:36;12.30;99.90
14397;DHT22;50653;47.810;13.022;2023-04-01T12:15:36;12.30;99.90
14397;DHT22;50653;47.810;13.022;2023-04-01T12:18:25;12.20;99.90
14397;DHT22;50653;47.810;13.022;2023-04-01T12:23:45;12.20;99.90
14397;DHT22;50653;47.810;13.022;2023-04-01T12:26:49;12.20;99.90
14397;DHT22;50653;47.810;13.022;2023-04-01T12:32:26;12.20;99.90
14397;DHT22;50653;47.810;13.022;2023-04-01T12:35:10;12.30;99.90
14397;DHT22;50653;47.810;13.022;2023-04-01T12:51:54;12.40;99.90
14397;DHT22;50653;47.810;13.022;2023-04-01T12:54:46;12.40;99.90
14397;DHT22;50653;47.810;13.022;2023-04-01T13:07:09;12.30;99.90
14397;DHT22;50653;47.810;13.022;2023-04-01T13:09:45;12.30;99.90
14397;DHT22;50653;47.810;13.022;2023-04-01T13:26:18;12.60;96.50
14397;DHT22;50653;47.810;13.022;2023-04-01T13:28:47;12.40;96.70
14397;DHT22;50653;47.810;13.022;2023-04-01T13:31:25;12.30;97.00
14397;DHT22;50653;47.810;13.022;2023-04-01T13:42:12;11.90;99.90
14397;DHT22;50653;47.810;13.022;2023-04-01T13:47:50;11.80;99.90
14397;DHT22;50653;47.810;13.022;2023-04-01T13:50:44;11.70;99.90
14397;DHT22;50653;47.810;13.022;2023-04-01T13:56:16;11.70;99.90
14397;DHT22;50653;47.810;13.022;2023-04-01T14:01:53;11.80;99.90
14397;DHT22;50653;47.810;13.022;2023-04-01T14:04:50;11.90;99.90
14397;DHT22;50653;47.810;13.022;2023-04-01T14:13:23;11.80;99.90
14397;DHT22;50653;47.810;13.022;2023-04-01T14:21:37;11.70;99.70
14397;DHT22;50653;47.810;13.022;2023-04-01T14:26:56;11.60;99.90
14397;DHT22;50653;47.810;13.022;2023-04-01T14:37:54;11.60;99.90
14397;DHT22;50653;47.810;13.022;2023-04-01T14:40:51;11.30;99.90
14397;DHT22;50653;47.810;13.022;2023-04-01T14:49:42;11.40;99.90
14397;DHT22;50653;47.810;13.022;2023-04-01T14:52:32;11.30;99.90
14397;DHT22;50653;47.810;13.022;2023-04-01T14:55:00;11.40;99.90
14397;DHT22;50653;47.810;13.022;2023-04-01T14:57:31;11.60;99.90
14397;DHT22;50653;47.810;13.022;2023-04-01T15:03:02;11.60;99.90
14397;DHT22;50653;47.810;13.022;2023-04-01T15:08:48;11.30;99.90
14397;DHT22;50653;47.810;13.022;2023-04-01T15:14:19;11.50;99.90
14397;DHT22;50653;47.810;13.022;2023-04-01T15:17:05;11.50;99.90
14397;DHT22;50653;47.810;13.022;2023-04-01T15:20:10;11.30;99.90
14397;DHT22;50653;47.810;13.022;2023-04-01T15:39:36;11.40;99.90
14397;DHT22;50653;47.810;13.022;2023-04-01T15:44:46;11.30;99.90
14397;DHT22;50653;47.810;13.022;2023-04-01T15:49:56;11.30;99.90
14397;DHT22;50653;47.810;13.022;2023-04-01T16:03:09;11.10;99.90
14397;DHT22;50653;47.810;13.022;2023-04-01T16:06:01;11.00;99.90
14397;DHT22;50653;47.810;13.022;2023-04-01T16:17:36;10.80;99.90
14397;DHT22;50653;47.810;13.022;2023-04-01T16:20:35;10.80;99.90
14397;DHT22;50653;47.810;13.022;2023-04-01T16:25:51;10.80;99.90
14397;DHT22;50653;47.810;13.022;2023-04-01T16:28:35;10.80;99.90
14397;DHT22;50653;47.810;13.022;2023-04-01T16:47:46;10.60;99.90
14397;DHT22;50653;47.810;13.022;2023-04-01T16:50:23;10.60;99.90
14397;DHT22;50653;47.810;13.022;2023-04-01T16:53:09;10.60;99.90
14397;DHT22;50653;47.810;13.022;2023-04-01T16:55:55;10.50;99.90
14397;DHT22;50653;47.810;13.022;2023-04-01T17:01:53;10.50;99.90
14397;DHT22;50653;47.810;13.022;2023-04-01T17:10:06;10.50;99.90
14397;DHT22;50653;47.810;13.022;2023-04-01T17:23:52;10.40;99.90
14397;DHT22;50653;47.810;13.022;2023-04-01T17:26:26;10.40;99.90
14397;DHT22;50653;47.810;13.022;2023-04-01T17:29:06;10.40;99.90
14397;DHT22;50653;47.810;13.022;2023-04-01T17:45:28;10.50;99.90
14397;DHT22;50653;47.810;13.022;2023-04-01T17:54:16;10.40;99.90
14397;DHT22;50653;47.810;13.022;2023-04-01T17:57:10;10.30;99.90
14397;DHT22;50653;47.810;13.022;2023-04-01T18:02:47;10.30;99.90
14397;DHT22;50653;47.810;13.022;2023-04-01T18:07:56;10.30;99.90
14397;DHT22;50653;47.810;13.022;2023-04-01T18:13:48;10.30;99.90
14397;DHT22;50653;47.810;13.022;2023-04-01T18:16:37;10.30;99.90
14397;DHT22;50653;47.810;13.022;2023-04-01T18:19:29;10.30;99.90
14397;DHT22;50653;47.810;13.022;2023-04-01T18:25:01;10.30;99.90
14397;DHT22;50653;47.810;13.022;2023-04-01T18:27:34;10.30;99.90
14397;DHT22;50653;47.810;13.022;2023-04-01T18:32:44;10.30;99.90
14397;DHT22;50653;47.810;13.022;2023-04-01T18:35:29;10.30;99.90
14397;DHT22;50653;47.810;13.022;2023-04-01T18:40:50;10.20;99.90
14397;DHT22;50653;47.810;13.022;2023-04-01T18:43:48;10.20;99.90
14397;DHT22;50653;47.810;13.022;2023-04-01T18:49:27;10.20;99.90
14397;DHT22;50653;47.810;13.022;2023-04-01T18:57:38;10.30;99.90
14397;DHT22;50653;47.810;13.022;2023-04-01T19:00:14;10.30;99.90
14397;DHT22;50653;47.810;13.022;2023-04-01T19:02:50;10.30;99.90
14397;DHT22;50653;47.810;13.022;2023-04-01T19:05:39;10.30;99.90
14397;DHT22;50653;47.810;13.022;2023-04-01T19:13:36;10.30;99.90
14397;DHT22;50653;47.810;13.022;2023-04-01T19:22:00;10.30;99.90
14397;DHT22;50653;47.810;13.022;2023-04-01T19:29:48;10.30;99.90
14397;DHT22;50653;47.810;13.022;2023-04-01T19:35:09;10.40;99.90
14397;DHT22;50653;47.810;13.022;2023-04-01T19:37:40;10.40;99.90
14397;DHT22;50653;47.810;13.022;2023-04-01T19:40:20;10.40;99.00
14397;DHT22;50653;47.810;13.022;2023-04-01T19:48:49;10.30;98.40
14397;DHT22;50653;47.810;13.022;2023-04-01T19:51:43;10.40;98.50
14397;DHT22;50653;47.810;13.022;2023-04-01T20:00:30;10.30;99.70
14397;DHT22;50653;47.810;13.022;2023-04-01T20:05:30;10.30;99.90
14397;DHT22;50653;47.810;13.022;2023-04-01T20:16:21;10.20;99.90
14397;DHT22;50653;47.810;13.022;2023-04-01T20:18:52;10.20;99.90
14397;DHT22;50653;47.810;13.022;2023-04-01T20:21:28;10.30;99.90
14397;DHT22;50653;47.810;13.022;2023-04-01T20:24:34;10.20;99.90
14397;DHT22;50653;47.810;13.022;2023-04-01T20:27:18;10.30;99.90
14397;DHT22;50653;47.810;13.022;2023-04-01T20:30:19;10.30;99.90
14397;DHT22;50653;47.810;13.022;2023-04-01T20:41:12;10.10;99.90
14397;DHT22;50653;47.810;13.022;2023-04-01T20:44:10;10.10;99.90
14397;DHT22;50653;47.810;13.022;2023-04-01T20:47:04;10.20;99.90
14397;DHT22;50653;47.810;13.022;2023-04-01T20:49:40;10.20;99.90
14397;DHT22;50653;47.810;13.022;2023-04-01T21:00:13;10.30;99.60
14397;DHT22;50653;47.810;13.022;2023-04-01T21:08:47;10.30;99.30
14397;DHT22;50653;47.810;13.022;2023-04-01T21:22:55;10.20;97.90
14397;DHT22;50653;47.810;13.022;2023-04-01T21:37:19;10.20;99.50
14397;DHT22;50653;47.810;13.022;2023-04-01T22:05:34;10.10;99.90
14397;DHT22;50653;47.810;13.022;2023-04-01T22:08:36;10.20;99.90
14397;DHT22;50653;47.810;13.022;2023-04-01T22:11:25;10.10;99.90
14397;DHT22;50653;47.810;13.022;2023-04-01T22:14:21;10.10;99.90
14397;DHT22;50653;47.810;13.022;2023-04-01T22:17:00;10.00;99.90
14397;DHT22;50653;47.810;13.022;2023-04-01T22:19:39;10.00;99.90
14397;DHT22;50653;47.810;13.022;2023-04-01T22:25:15;10.10;99.90
14397;DHT22;50653;47.810;13.022;2023-04-01T22:30:54;9.90;99.90
14397;DHT22;50653;47.810;13.022;2023-04-01T22:33:29;9.90;99.90
14397;DHT22;50653;47.810;13.022;2023-04-01T22:39:04;9.90;99.90
14397;DHT22;50653;47.810;13.022;2023-04-01T22:47:44;9.70;99.90
14397;DHT22;50653;47.810;13.022;2023-04-01T22:55:38;9.80;99.90
14397;DHT22;50653;47.810;13.022;2023-04-01T22:58:12;9.80;99.90
14397;DHT22;50653;47.810;13.022;2023-04-01T23:00:45;9.90;99.90
14397;DHT22;50653;47.810;13.022;2023-04-01T23:03:30;9.70;99.90
14397;DHT22;50653;47.810;13.022;2023-04-01T23:05:59;9.90;99.90
14397;DHT22;50653;47.810;13.022;2023-04-01T23:19:49;9.70;99.90
14397;DHT22;50653;47.810;13.022;2023-04-01T23:22:42;9.60;99.90
14397;DHT22;50653;47.810;13.022;2023-04-01T23:35:59;9.70;99.90
14397;DHT22;50653;47.810;13.022;2023-04-01T23:38:37;9.60;99.90
14397;DHT22;50653;47.810;13.022;2023-04-01T23:41:04;9.60;99.90
14397;DHT22;50653;47.810;13.022;2023-04-01T23:43:38;9.60;99.90
14397;DHT22;50653;47.810;13.022;2023-04-01T23:46:06;9.70;99.90
14397;DHT22;50653;47.810;13.022;2023-04-01T23:48:36;9.70;99.90
14397;DHT22;50653;47.810;13.022;2023-04-01T23:51:03;9.70;99.90
14397;DHT22;50653;47.810;13.022;2023-04-01T23:53:33;9.80;99.90
14397;DHT22;50653;47.810;13.022;2023-04-01T23:55:59;9.70;99.90
14397;DHT22;50653;47.810;13.022;2023-04-01T23:58:38;9.70;99.90
